Time;durP1;ratioP1;P1;durP2;ratioP2;P2;SDS_P1;SDS_P2;PMS_P1;PMS_P2;Temp;Humidity;BMP_temperature;BMP_pressure;BME280_temperature;BME280_humidity;BME280_pressure;Samples;Min_cycle;Max_cycle;Signal;HPM_P1;HPM_P2
2022/07/10 00:01:08;;;;;;;6.63;3.67;;;17.70;41.10;;;;;;5025933;28;46303;-62
2022/07/10 00:03:33;;;;;;;5.40;3.30;;;17.60;41.10;;;;;;5029963;28;46629;-62
2022/07/10 00:05:59;;;;;;;6.10;3.53;;;17.60;41.00;;;;;;5028678;28;46421;-62
2022/07/10 00:08:25;;;;;;;10.63;3.77;;;17.50;41.40;;;;;;5030052;28;46441;-61
2022/07/10 00:10:50;;;;;;;6.50;3.90;;;17.30;43.00;;;;;;5029769;28;46703;-61
2022/07/10 00:13:16;;;;;;;11.20;5.23;;;17.30;43.60;;;;;;5029151;28;46606;-62
2022/07/10 00:15:41;;;;;;;8.13;4.20;;;17.30;43.40;;;;;;5029204;28;46549;-62
2022/07/10 00:18:07;;;;;;;6.53;4.20;;;17.30;43.50;;;;;;5026351;28;45972;-61
2022/07/10 00:20:33;;;;;;;5.70;3.83;;;17.20;43.40;;;;;;5031023;28;46481;-61
2022/07/10 00:22:59;;;;;;;6.50;4.30;;;17.20;43.40;;;;;;5025440;28;46513;-62
2022/07/10 00:25:24;;;;;;;7.30;4.03;;;17.30;43.20;;;;;;5031642;28;46650;-65
2022/07/10 00:27:50;;;;;;;5.90;3.97;;;17.30;42.80;;;;;;5027716;28;46399;-63
2022/07/10 00:30:16;;;;;;;9.23;4.53;;;17.30;42.70;;;;;;5031691;28;46460;-62
2022/07/10 00:32:41;;;;;;;5.53;3.87;;;17.30;42.80;;;;;;5027103;28;46726;-62
2022/07/10 00:35:07;;;;;;;6.50;4.03;;;17.30;42.60;;;;;;5028820;28;46505;-61
2022/07/10 00:37:33;;;;;;;8.40;4.87;;;17.40;42.50;;;;;;5031329;28;46766;-60
2022/07/10 00:39:59;;;;;;;7.60;5.13;;;17.50;42.50;;;;;;5030650;28;46389;-61
2022/07/10 00:42:26;;;;;;;12.73;4.57;;;17.50;42.60;;;;;;5031530;28;46430;-62
2022/07/10 00:44:51;;;;;;;6.63;4.63;;;17.50;42.70;;;;;;5028857;28;46741;-61
2022/07/10 00:47:19;;;;;;;9.33;5.07;;;17.50;43.10;;;;;;5031096;28;46515;-62
2022/07/10 00:49:46;;;;;;;6.87;4.73;;;17.50;43.40;;;;;;5027971;28;46530;-62
2022/07/10 00:52:15;;;;;;;8.30;4.83;;;17.50;43.50;;;;;;5031043;28;46434;-61
2022/07/10 00:54:44;;;;;;;7.53;4.57;;;17.50;43.70;;;;;;5031164;28;46552;-62
2022/07/10 00:57:11;;;;;;;9.93;4.60;;;17.50;43.90;;;;;;5031909;28;46312;-61
2022/07/10 00:59:37;;;;;;;16.60;4.90;;;17.50;44.10;;;;;;5032475;28;46498;-61
2022/07/10 01:02:04;;;;;;;7.30;4.77;;;17.50;44.30;;;;;;5036150;28;46366;-62
2022/07/10 01:04:31;;;;;;;7.03;5.20;;;17.30;45.20;;;;;;5037662;28;47075;-63
2022/07/10 01:06:56;;;;;;;7.63;4.47;;;17.00;47.00;;;;;;5037312;28;46429;-62
2022/07/10 01:09:22;;;;;;;7.13;4.90;;;16.90;47.20;;;;;;5036287;28;46418;-62
2022/07/10 01:11:49;;;;;;;9.50;5.30;;;16.80;47.50;;;;;;5035747;28;45901;-61
2022/07/10 01:14:17;;;;;;;6.53;4.70;;;16.90;47.30;;;;;;5036881;28;46394;-61
2022/07/10 01:16:43;;;;;;;7.73;4.93;;;17.00;47.10;;;;;;5032622;28;46495;-61
2022/07/10 01:19:09;;;;;;;5.50;4.37;;;17.00;46.90;;;;;;5033247;28;46653;-61
2022/07/10 01:21:36;;;;;;;6.03;4.50;;;17.00;47.00;;;;;;5032161;28;46761;-61
2022/07/10 01:24:08;;;;;;;5.77;4.60;;;17.00;47.10;;;;;;5029218;28;46474;-61
2022/07/10 01:26:34;;;;;;;9.70;5.17;;;17.00;47.60;;;;;;5032463;28;46478;-61
2022/07/10 01:29:04;;;;;;;8.90;5.57;;;17.00;47.70;;;;;;5031654;28;46486;-61
2022/07/10 01:31:29;;;;;;;7.73;5.10;;;17.00;48.10;;;;;;5031150;28;46557;-62
2022/07/10 01:33:56;;;;;;;9.97;5.70;;;16.90;48.30;;;;;;5031532;28;46898;-62
2022/07/10 01:36:22;;;;;;;7.47;5.43;;;16.90;48.70;;;;;;5030059;28;46394;-63
2022/07/10 01:38:51;;;;;;;8.10;5.43;;;16.90;49.00;;;;;;5031544;28;45895;-62
2022/07/10 01:41:16;;;;;;;8.33;6.50;;;16.80;49.20;;;;;;5036408;28;45859;-62
2022/07/10 01:43:44;;;;;;;13.03;6.07;;;16.80;49.40;;;;;;5033951;28;48030;-62
2022/07/10 01:46:11;;;;;;;11.10;5.70;;;16.80;49.70;;;;;;5032610;28;46643;-62
2022/07/10 01:48:38;;;;;;;9.43;6.10;;;16.70;50.10;;;;;;5036980;28;45845;-62
2022/07/10 01:51:04;;;;;;;8.57;5.90;;;16.70;50.50;;;;;;5032178;28;46588;-62
2022/07/10 01:53:30;;;;;;;9.07;6.43;;;16.70;50.60;;;;;;5033959;28;47080;-62
2022/07/10 01:55:56;;;;;;;10.93;5.57;;;16.70;50.90;;;;;;5032216;28;46403;-62
2022/07/10 01:58:22;;;;;;;11.50;6.10;;;16.70;51.10;;;;;;5035051;28;46439;-62
2022/07/10 02:00:48;;;;;;;10.77;6.57;;;16.70;51.30;;;;;;5034072;28;46463;-62
2022/07/10 02:05:58;;;;;;;10.20;5.67;;;16.60;51.90;;;;;;5036788;28;46406;-62
2022/07/10 02:08:23;;;;;;;15.77;7.40;;;16.60;52.30;;;;;;5032832;28;46395;-62
2022/07/10 02:10:49;;;;;;;11.90;6.10;;;16.50;52.60;;;;;;5034070;28;46307;-62
2022/07/10 02:13:17;;;;;;;12.50;6.27;;;16.50;52.90;;;;;;5030389;28;47146;-62
2022/07/10 02:15:43;;;;;;;7.20;5.80;;;16.50;53.40;;;;;;5033704;28;46294;-63
2022/07/10 02:18:09;;;;;;;22.83;7.23;;;16.40;53.90;;;;;;5029807;28;46011;-62
2022/07/10 02:20:36;;;;;;;11.50;5.50;;;16.20;54.50;;;;;;5034084;28;46606;-62
2022/07/10 02:23:02;;;;;;;9.97;6.00;;;16.10;55.10;;;;;;5027871;28;47357;-62
2022/07/10 02:25:27;;;;;;;10.50;6.00;;;16.10;55.70;;;;;;5036959;28;46444;-62
2022/07/10 02:27:53;;;;;;;7.07;6.00;;;16.00;56.10;;;;;;5030687;28;46450;-63
2022/07/10 02:30:19;;;;;;;16.80;6.70;;;15.90;57.00;;;;;;5030376;28;46327;-62
2022/07/10 02:32:45;;;;;;;10.70;6.43;;;15.80;57.00;;;;;;5031429;28;46397;-62
2022/07/10 02:35:10;;;;;;;12.50;6.70;;;15.70;56.90;;;;;;5032777;28;46307;-62
2022/07/10 02:37:36;;;;;;;18.83;6.47;;;15.60;59.00;;;;;;5031208;28;46259;-63
2022/07/10 02:40:02;;;;;;;12.33;6.40;;;15.50;58.30;;;;;;5037000;28;46363;-62
2022/07/10 02:42:27;;;;;;;11.37;6.43;;;15.40;58.70;;;;;;5032338;28;46002;-63
2022/07/10 02:44:53;;;;;;;9.00;6.33;;;15.40;58.80;;;;;;5029891;28;46391;-62
2022/07/10 02:47:18;;;;;;;9.67;6.57;;;15.40;58.90;;;;;;5028719;28;46459;-62
2022/07/10 02:49:44;;;;;;;11.83;6.53;;;15.40;58.80;;;;;;5034784;28;46375;-62
2022/07/10 02:52:10;;;;;;;14.60;7.50;;;15.50;58.60;;;;;;5029929;28;46459;-62
2022/07/10 02:54:35;;;;;;;16.13;6.77;;;15.50;58.60;;;;;;5031234;28;46422;-62
2022/07/10 02:57:01;;;;;;;10.00;6.77;;;15.50;58.50;;;;;;5032481;28;46534;-63
2022/07/10 02:59:27;;;;;;;9.60;6.43;;;15.50;58.60;;;;;;5028798;28;46374;-62
2022/07/10 03:01:52;;;;;;;11.27;6.97;;;15.40;58.80;;;;;;5030919;28;47131;-62
2022/07/10 03:04:18;;;;;;;12.03;6.50;;;15.40;59.00;;;;;;5032745;28;46391;-62
2022/07/10 03:06:43;;;;;;;10.50;7.50;;;15.40;59.40;;;;;;5031677;28;46398;-61
2022/07/10 03:09:09;;;;;;;9.93;7.57;;;15.30;59.40;;;;;;5031125;28;46368;-62
2022/07/10 03:11:35;;;;;;;13.63;7.10;;;15.30;59.40;;;;;;5027389;28;48045;-62
2022/07/10 03:14:00;;;;;;;16.67;7.17;;;15.30;59.60;;;;;;5032077;28;46296;-61
2022/07/10 03:16:26;;;;;;;9.67;6.97;;;15.30;59.80;;;;;;5029437;28;46443;-62
2022/07/10 03:18:51;;;;;;;8.23;7.00;;;15.30;59.80;;;;;;5027354;28;46666;-61
2022/07/10 03:21:17;;;;;;;9.67;7.00;;;15.30;59.60;;;;;;5034253;28;47236;-62
2022/07/10 03:23:43;;;;;;;9.20;6.43;;;15.40;59.60;;;;;;5026608;28;46746;-62
2022/07/10 03:26:08;;;;;;;14.13;6.80;;;15.40;59.50;;;;;;5036041;28;46806;-61
2022/07/10 03:28:34;;;;;;;9.70;7.53;;;15.40;59.40;;;;;;5032156;28;45859;-61
2022/07/10 03:30:59;;;;;;;10.20;7.73;;;15.40;59.50;;;;;;5034526;28;46386;-62
2022/07/10 03:33:25;;;;;;;9.00;6.97;;;15.40;59.60;;;;;;5033828;28;46398;-61
2022/07/10 03:35:51;;;;;;;8.90;7.00;;;15.50;59.70;;;;;;5033599;28;46674;-62
2022/07/10 03:38:16;;;;;;;15.80;8.40;;;15.50;59.60;;;;;;5034130;28;46488;-63
2022/07/10 03:40:42;;;;;;;10.10;7.80;;;15.60;59.40;;;;;;5032699;28;46456;-61
2022/07/10 03:43:07;;;;;;;15.63;7.13;;;15.60;59.20;;;;;;5033767;28;46370;-61
2022/07/10 03:45:33;;;;;;;10.57;7.97;;;15.70;59.40;;;;;;5032240;28;46448;-62
2022/07/10 03:47:58;;;;;;;11.63;7.83;;;15.70;59.40;;;;;;5033539;28;46442;-62
2022/07/10 03:50:24;;;;;;;14.93;7.53;;;15.70;59.50;;;;;;5029768;28;46926;-61
2022/07/10 03:52:50;;;;;;;11.77;6.57;;;15.70;59.50;;;;;;5032457;28;45815;-61
2022/07/10 03:55:16;;;;;;;8.10;6.90;;;15.70;59.80;;;;;;5032017;28;46401;-61
2022/07/10 03:57:53;;;;;;;8.27;5.70;;;15.80;60.00;;;;;;5035968;28;46427;-61
2022/07/10 04:00:21;;;;;;;13.20;6.70;;;15.80;60.00;;;;;;5031608;28;46393;-62
2022/07/10 04:02:48;;;;;;;9.10;7.03;;;15.90;59.70;;;;;;5026622;28;46536;-62
2022/07/10 04:05:14;;;;;;;11.73;5.90;;;16.00;59.70;;;;;;5030674;28;46540;-63
2022/07/10 04:07:39;;;;;;;10.03;6.50;;;16.10;59.40;;;;;;5030359;28;46274;-63
2022/07/10 04:10:06;;;;;;;7.93;6.33;;;16.20;59.30;;;;;;5034196;28;47030;-62
2022/07/10 04:12:31;;;;;;;14.57;6.37;;;16.30;59.30;;;;;;5032065;28;46557;-62
2022/07/10 04:14:57;;;;;;;9.53;5.90;;;16.30;59.10;;;;;;5031372;28;46363;-62
2022/07/10 04:17:22;;;;;;;11.10;5.90;;;16.30;59.20;;;;;;5033201;28;46439;-62
2022/07/10 04:19:48;;;;;;;15.13;6.60;;;16.30;59.40;;;;;;5029506;28;47143;-62
2022/07/10 04:22:14;;;;;;;7.23;6.30;;;16.30;59.40;;;;;;5032771;28;46007;-62
2022/07/10 04:24:39;;;;;;;7.20;6.03;;;16.40;59.40;;;;;;5028754;28;46450;-63
2022/07/10 04:27:06;;;;;;;10.63;6.20;;;16.40;59.30;;;;;;5033820;28;46148;-61
2022/07/10 04:29:32;;;;;;;8.07;6.57;;;16.50;59.20;;;;;;5030048;28;47294;-62
2022/07/10 04:31:57;;;;;;;13.63;6.37;;;16.50;58.90;;;;;;5034440;28;46435;-62
2022/07/10 04:34:23;;;;;;;11.80;6.37;;;16.50;58.80;;;;;;5038663;28;46531;-62
2022/07/10 04:36:49;;;;;;;9.10;6.77;;;16.60;58.80;;;;;;5031226;28;46379;-62
2022/07/10 04:39:14;;;;;;;7.50;6.70;;;16.60;58.50;;;;;;5034808;28;46495;-62
2022/07/10 04:41:40;;;;;;;9.47;6.30;;;16.70;57.80;;;;;;5033393;28;46672;-61
2022/07/10 04:44:05;;;;;;;10.50;7.00;;;16.70;57.80;;;;;;5037312;28;46547;-62
2022/07/10 04:46:31;;;;;;;14.77;6.47;;;16.70;57.80;;;;;;5031722;28;46276;-62
2022/07/10 04:48:57;;;;;;;9.07;6.20;;;16.70;57.90;;;;;;5035468;28;47331;-62
2022/07/10 04:51:23;;;;;;;8.73;6.70;;;16.70;58.00;;;;;;5034385;28;46462;-62
2022/07/10 04:53:49;;;;;;;10.23;7.40;;;16.70;58.10;;;;;;5035275;28;46582;-62
2022/07/10 04:56:14;;;;;;;9.20;7.03;;;16.60;58.30;;;;;;5034530;28;46382;-62
2022/07/10 04:58:40;;;;;;;9.00;6.93;;;16.60;58.40;;;;;;5035483;28;47356;-62
2022/07/10 05:01:05;;;;;;;12.70;7.03;;;16.50;58.70;;;;;;5035015;28;46355;-63
2022/07/10 05:03:31;;;;;;;11.37;7.53;;;16.50;58.70;;;;;;5032478;28;46434;-62
2022/07/10 05:05:57;;;;;;;9.20;7.40;;;16.50;58.80;;;;;;5037008;28;46422;-62
2022/07/10 05:08:22;;;;;;;11.07;8.70;;;16.40;59.00;;;;;;5028719;28;46442;-62
2022/07/10 05:10:48;;;;;;;14.70;9.33;;;16.30;59.50;;;;;;5034979;28;46394;-61
2022/07/10 05:13:13;;;;;;;12.43;9.23;;;16.10;60.30;;;;;;5029478;28;46422;-62
2022/07/10 05:15:39;;;;;;;32.53;9.03;;;16.00;60.20;;;;;;5033977;28;46350;-62
2022/07/10 05:18:05;;;;;;;11.70;7.70;;;16.00;61.10;;;;;;5034642;28;46283;-62
2022/07/10 05:20:30;;;;;;;12.47;8.70;;;16.00;61.00;;;;;;5030000;28;46427;-62
2022/07/10 05:22:56;;;;;;;12.17;8.60;;;16.10;61.70;;;;;;5032993;28;46586;-62
2022/07/10 05:25:22;;;;;;;10.70;8.70;;;16.10;61.00;;;;;;5028468;28;46264;-62
2022/07/10 05:27:48;;;;;;;12.53;9.03;;;16.00;62.30;;;;;;5033456;28;47045;-62
2022/07/10 05:30:13;;;;;;;11.93;9.10;;;16.10;61.00;;;;;;5030793;28;46536;-61
2022/07/10 05:32:43;;;;;;;13.80;8.83;;;16.20;60.40;;;;;;5034635;28;46484;-61
2022/07/10 05:35:09;;;;;;;12.53;8.13;;;16.20;60.50;;;;;;5031169;28;46517;-62
2022/07/10 05:37:34;;;;;;;15.33;9.37;;;16.30;60.00;;;;;;5033667;28;46421;-62
2022/07/10 05:40:00;;;;;;;12.00;8.40;;;16.20;61.10;;;;;;5028625;28;46436;-62
2022/07/10 05:42:26;;;;;;;10.80;8.50;;;16.20;60.00;;;;;;5031680;28;46287;-62
2022/07/10 05:44:51;;;;;;;15.73;9.50;;;16.20;60.20;;;;;;5032312;28;46506;-62
2022/07/10 05:47:17;;;;;;;12.17;9.07;;;16.20;60.60;;;;;;5029681;28;47114;-61
2022/07/10 05:49:42;;;;;;;12.50;8.90;;;16.20;60.40;;;;;;5034873;28;46360;-62
2022/07/10 05:52:08;;;;;;;11.93;9.27;;;16.40;60.00;;;;;;5028684;28;46545;-62
2022/07/10 05:54:33;;;;;;;12.80;8.90;;;16.50;59.80;;;;;;5031353;28;46707;-62
2022/07/10 05:56:59;;;;;;;12.50;9.50;;;16.40;60.00;;;;;;5035590;28;47036;-61
2022/07/10 05:59:25;;;;;;;19.07;10.57;;;16.40;60.00;;;;;;5035804;28;45839;-61
2022/07/10 06:01:50;;;;;;;12.33;9.43;;;16.40;59.80;;;;;;5034706;28;46390;-61
2022/07/10 06:04:16;;;;;;;11.73;9.07;;;16.30;59.70;;;;;;5036275;28;45995;-62
2022/07/10 06:06:42;;;;;;;13.00;9.47;;;16.20;59.90;;;;;;5031874;28;46371;-61
2022/07/10 06:09:07;;;;;;;10.00;8.23;;;16.20;59.90;;;;;;5033169;28;46370;-62
2022/07/10 06:11:33;;;;;;;14.97;9.10;;;16.10;60.20;;;;;;5034901;28;46337;-62
2022/07/10 06:13:59;;;;;;;16.07;10.10;;;16.00;60.60;;;;;;5030461;28;46585;-63
2022/07/10 06:16:25;;;;;;;13.73;9.90;;;16.00;60.80;;;;;;5033323;28;47074;-61
2022/07/10 06:18:51;;;;;;;12.60;9.87;;;16.00;60.80;;;;;;5027897;28;46535;-61
2022/07/10 06:21:21;;;;;;;13.40;10.07;;;16.20;60.00;;;;;;5031290;28;45816;-61
2022/07/10 06:23:47;;;;;;;11.43;9.17;;;16.50;59.70;;;;;;5030577;28;45998;-62
2022/07/10 06:26:13;;;;;;;12.97;10.57;;;16.70;59.10;;;;;;5030444;28;46310;-62
2022/07/10 06:28:39;;;;;;;15.70;9.40;;;16.90;58.20;;;;;;5032500;28;46460;-62
2022/07/10 06:31:05;;;;;;;11.87;8.77;;;17.30;58.40;;;;;;5033925;28;46471;-62
2022/07/10 06:33:32;;;;;;;12.70;8.67;;;17.60;56.60;;;;;;5034847;28;46665;-62
2022/07/10 06:35:58;;;;;;;14.60;8.30;;;17.90;55.70;;;;;;5031974;28;47292;-62
2022/07/10 06:38:23;;;;;;;11.40;7.30;;;18.20;55.20;;;;;;5029507;28;46462;-61
2022/07/10 06:40:51;;;;;;;9.50;7.63;;;18.70;54.00;;;;;;5033843;28;46364;-62
2022/07/10 06:43:16;;;;;;;11.00;8.07;;;18.80;52.30;;;;;;5032583;28;45969;-61
2022/07/10 06:45:42;;;;;;;12.83;8.40;;;18.60;52.00;;;;;;5032946;28;46924;-62
2022/07/10 06:48:08;;;;;;;11.37;7.10;;;18.40;52.50;;;;;;5029403;28;46331;-62
2022/07/10 06:50:34;;;;;;;8.50;6.47;;;18.30;52.20;;;;;;5028886;28;46212;-62
2022/07/10 06:53:01;;;;;;;8.50;6.13;;;18.40;51.90;;;;;;5030610;28;46295;-62
2022/07/10 06:55:27;;;;;;;14.40;6.77;;;18.60;51.40;;;;;;5032447;28;46626;-64
2022/07/10 06:57:54;;;;;;;9.37;6.07;;;19.00;50.60;;;;;;5033520;28;46367;-62
2022/07/10 07:00:20;;;;;;;11.70;6.00;;;19.50;49.30;;;;;;5032831;28;46636;-62
2022/07/10 07:02:46;;;;;;;11.93;5.60;;;19.70;47.40;;;;;;5033730;28;46514;-62
2022/07/10 07:05:12;;;;;;;8.23;5.60;;;19.70;47.40;;;;;;5033037;28;46465;-61
2022/07/10 07:07:38;;;;;;;8.70;5.73;;;19.50;47.20;;;;;;5032734;28;46618;-61
2022/07/10 07:10:04;;;;;;;11.57;5.60;;;19.00;47.50;;;;;;5029226;28;46742;-61
2022/07/10 07:12:30;;;;;;;8.53;5.37;;;18.90;46.70;;;;;;5032441;28;46618;-62
2022/07/10 07:14:56;;;;;;;9.07;6.03;;;18.80;47.70;;;;;;5030195;28;47377;-61
2022/07/10 07:17:22;;;;;;;7.17;4.80;;;18.80;46.60;;;;;;5028274;28;46698;-63
2022/07/10 07:25:21;;;;;;;10.53;4.17;;;19.00;43.90;;;;;;5032644;28;46697;-62
2022/07/10 07:27:47;;;;;;;7.07;4.13;;;18.80;44.80;;;;;;5035201;28;46491;-62
2022/07/10 07:30:14;;;;;;;6.77;4.10;;;18.80;45.20;;;;;;5031412;28;46474;-63
2022/07/10 07:32:42;;;;;;;8.33;3.57;;;19.10;44.30;;;;;;5035317;28;46232;-61
2022/07/10 07:35:09;;;;;;;9.30;3.57;;;19.10;42.80;;;;;;5031431;28;46358;-62
2022/07/10 07:37:38;;;;;;;7.23;4.53;;;19.00;42.90;;;;;;5032682;28;46406;-63
2022/07/10 07:40:05;;;;;;;5.53;3.60;;;19.10;42.80;;;;;;5030034;28;46405;-62
2022/07/10 07:42:31;;;;;;;8.60;3.67;;;19.30;42.60;;;;;;5029649;28;46492;-62
2022/07/10 07:44:57;;;;;;;5.57;3.47;;;19.60;42.40;;;;;;5033963;28;46316;-62
2022/07/10 07:47:23;;;;;;;9.10;3.37;;;19.60;42.10;;;;;;5029234;28;45915;-62
2022/07/10 07:49:48;;;;;;;5.27;3.13;;;19.90;41.30;;;;;;5027346;28;46443;-62
2022/07/10 07:52:14;;;;;;;10.63;3.57;;;19.70;39.80;;;;;;5031268;28;46543;-62
2022/07/10 07:54:40;;;;;;;4.83;3.10;;;19.80;40.20;;;;;;5027013;28;46469;-63
2022/07/10 07:57:06;;;;;;;5.87;3.00;;;19.60;40.40;;;;;;5029616;28;46488;-64
2022/07/10 07:59:31;;;;;;;5.70;3.00;;;19.50;39.90;;;;;;5032404;28;45917;-62
2022/07/10 08:01:57;;;;;;;10.13;3.53;;;19.50;39.90;;;;;;5030707;28;46623;-62
2022/07/10 08:04:22;;;;;;;5.97;3.17;;;19.40;39.30;;;;;;5031498;28;46196;-63
2022/07/10 08:06:51;;;;;;;7.23;3.77;;;19.30;39.50;;;;;;5026077;28;45849;-63
2022/07/10 08:09:18;;;;;;;7.20;3.60;;;19.40;39.30;;;;;;5029282;28;46659;-63
2022/07/10 08:11:44;;;;;;;7.80;3.50;;;19.80;38.60;;;;;;5028606;28;46375;-63
2022/07/10 08:14:10;;;;;;;7.77;3.57;;;20.20;37.40;;;;;;5030168;28;46683;-62
2022/07/10 08:16:35;;;;;;;7.40;3.40;;;20.30;36.70;;;;;;5026152;28;46413;-65
2022/07/10 08:19:01;;;;;;;6.37;3.10;;;20.20;34.70;;;;;;5027778;28;46425;-64
2022/07/10 08:21:27;;;;;;;8.80;3.13;;;19.90;34.90;;;;;;5026713;28;46716;-64
2022/07/10 08:23:53;;;;;;;5.33;3.10;;;19.60;35.50;;;;;;5031711;28;47281;-65
2022/07/10 08:26:19;;;;;;;7.73;3.10;;;19.20;36.60;;;;;;5027318;28;46461;-63
2022/07/10 08:28:45;;;;;;;12.30;3.30;;;19.10;37.10;;;;;;5031899;28;46440;-62
2022/07/10 08:31:11;;;;;;;11.57;2.90;;;19.20;37.20;;;;;;5032044;28;46573;-61
2022/07/10 08:33:37;;;;;;;7.13;3.00;;;19.30;37.20;;;;;;5030573;28;46636;-62
2022/07/10 08:36:04;;;;;;;6.20;3.13;;;19.80;36.80;;;;;;5025626;28;46348;-64
2022/07/10 08:38:29;;;;;;;7.20;3.10;;;20.00;36.10;;;;;;5027952;28;46939;-62
2022/07/10 08:40:57;;;;;;;7.43;3.70;;;20.00;34.00;;;;;;5028965;28;46252;-61
2022/07/10 08:43:24;;;;;;;8.00;3.20;;;19.60;34.80;;;;;;5029209;28;46901;-62
2022/07/10 08:45:50;;;;;;;5.50;2.80;;;20.10;34.80;;;;;;5030680;28;46521;-62
2022/07/10 08:48:23;;;;;;;8.30;3.13;;;20.70;34.30;;;;;;5028746;28;46480;-62
2022/07/10 08:50:53;;;;;;;3.90;2.40;;;21.00;32.30;;;;;;5031848;28;46511;-62
2022/07/10 08:53:30;;;;;;;5.80;2.80;;;21.00;31.40;;;;;;5028285;28;47053;-63
2022/07/10 08:55:55;;;;;;;7.90;3.20;;;20.60;31.20;;;;;;5028216;28;46797;-63
2022/07/10 08:58:23;;;;;;;4.60;2.80;;;20.00;30.30;;;;;;5031846;28;46382;-62
2022/07/10 09:00:49;;;;;;;8.20;3.43;;;20.00;32.00;;;;;;5032989;28;46509;-62
2022/07/10 09:03:14;;;;;;;20.47;2.67;;;20.30;31.20;;;;;;5029102;28;46843;-62
2022/07/10 09:05:40;;;;;;;7.27;3.60;;;20.40;31.30;;;;;;5030192;28;46161;-62
2022/07/10 09:08:32;;;;;;;9.60;2.63;;;20.50;30.30;;;;;;5029955;28;46386;-63
2022/07/10 09:11:17;;;;;;;5.37;2.90;;;20.70;29.70;;;;;;5030857;28;46519;-63
2022/07/10 09:14:13;;;;;;;9.50;2.73;;;20.40;28.30;;;;;;5026681;28;47357;-62
2022/07/10 09:16:45;;;;;;;7.27;2.63;;;21.00;29.00;;;;;;5027880;28;46440;-61
2022/07/10 09:19:25;;;;;;;7.70;2.33;;;21.20;27.80;;;;;;5030753;28;46771;-62
2022/07/10 09:21:59;;;;;;;4.77;2.57;;;21.40;28.00;;;;;;5032364;28;46498;-62
2022/07/10 09:24:25;;;;;;;6.70;2.23;;;22.00;27.20;;;;;;5033610;28;47221;-63
2022/07/10 09:26:56;;;;;;;5.90;2.20;;;22.10;26.90;;;;;;5030864;28;46394;-62
2022/07/10 09:29:22;;;;;;;9.03;2.50;;;22.30;25.90;;;;;;5035112;28;45891;-62
2022/07/10 09:31:56;;;;;;;3.33;2.00;;;21.70;25.10;;;;;;5033438;28;46455;-63
2022/07/10 09:37:40;;;;;;;5.70;2.47;;;20.30;26.60;;;;;;5023846;28;46416;-62
2022/07/10 09:40:08;;;;;;;5.67;1.97;;;20.40;27.50;;;;;;5027599;28;46318;-62
2022/07/10 09:42:37;;;;;;;5.23;2.20;;;20.70;28.20;;;;;;5035872;28;46676;-62
2022/07/10 09:45:12;;;;;;;4.00;2.20;;;21.30;26.50;;;;;;5027208;28;46421;-62
2022/07/10 09:47:42;;;;;;;4.57;2.20;;;21.70;25.50;;;;;;5029622;28;46463;-61
2022/07/10 09:50:37;;;;;;;4.57;2.17;;;21.50;26.40;;;;;;5031990;28;46451;-61
2022/07/10 09:53:05;;;;;;;7.60;2.60;;;21.20;26.10;;;;;;5030861;28;46447;-62
2022/07/10 09:55:37;;;;;;;5.07;1.90;;;21.10;25.80;;;;;;5030110;28;46846;-62
2022/07/10 09:58:08;;;;;;;6.13;2.40;;;20.80;25.80;;;;;;5029929;28;46309;-63
2022/07/10 10:00:40;;;;;;;5.77;2.10;;;21.30;25.70;;;;;;5031999;28;46335;-60
2022/07/10 10:03:09;;;;;;;6.37;2.23;;;21.50;25.70;;;;;;5033128;28;46644;-62
2022/07/10 10:05:53;;;;;;;4.87;2.07;;;21.80;25.50;;;;;;5029953;28;46431;-62
2022/07/10 10:08:24;;;;;;;8.53;2.33;;;21.50;23.90;;;;;;5032375;28;45925;-62
2022/07/10 10:10:51;;;;;;;4.53;2.00;;;21.40;24.20;;;;;;5030904;28;46512;-60
2022/07/10 10:13:22;;;;;;;4.20;1.90;;;21.90;23.80;;;;;;5031172;28;46572;-60
2022/07/10 10:15:49;;;;;;;6.83;2.10;;;22.10;23.90;;;;;;5028406;28;46395;-62
2022/07/10 10:18:18;;;;;;;6.50;2.30;;;22.10;23.90;;;;;;5034604;28;46473;-60
2022/07/10 10:20:45;;;;;;;7.70;1.87;;;22.10;23.90;;;;;;5031093;28;46530;-62
2022/07/10 10:23:17;;;;;;;6.57;1.97;;;21.80;23.70;;;;;;5037899;28;46383;-60
2022/07/10 10:25:44;;;;;;;7.27;2.80;;;21.90;23.50;;;;;;5030160;28;46389;-60
2022/07/10 10:28:11;;;;;;;6.00;2.07;;;21.70;23.60;;;;;;5029189;28;46371;-63
2022/07/10 10:30:39;;;;;;;7.43;2.30;;;22.30;23.40;;;;;;5036271;28;46475;-60
2022/07/10 10:33:30;;;;;;;4.10;2.13;;;22.70;22.70;;;;;;5032395;28;45969;-61
2022/07/10 10:35:56;;;;;;;5.37;1.90;;;22.00;21.90;;;;;;5030854;28;46409;-61
2022/07/10 10:38:22;;;;;;;4.13;1.60;;;20.90;23.10;;;;;;5028380;28;45887;-60
2022/07/10 10:40:48;;;;;;;10.07;2.27;;;20.70;24.70;;;;;;5026257;28;46479;-59
2022/07/10 10:43:22;;;;;;;3.90;1.90;;;20.70;24.10;;;;;;5031316;28;46422;-60
2022/07/10 10:45:49;;;;;;;5.40;1.60;;;21.40;23.40;;;;;;5030268;28;47293;-61
2022/07/10 10:48:21;;;;;;;4.53;1.90;;;21.90;22.80;;;;;;5032202;28;46438;-60
2022/07/10 10:50:49;;;;;;;7.10;1.93;;;22.60;22.00;;;;;;5029462;28;46354;-60
2022/07/10 10:53:29;;;;;;;4.70;1.90;;;23.10;21.70;;;;;;5032848;28;46565;-61
2022/07/10 10:56:00;;;;;;;5.87;1.90;;;22.90;20.60;;;;;;5027085;28;47139;-61
2022/07/10 10:58:46;;;;;;;4.83;1.77;;;22.10;20.10;;;;;;5028986;28;46417;-63
2022/07/10 11:01:20;;;;;;;3.73;2.00;;;21.50;21.10;;;;;;5031072;28;46473;-60
2022/07/10 11:04:04;;;;;;;6.10;1.90;;;21.20;21.70;;;;;;5030763;28;46445;-61
2022/07/10 11:06:47;;;;;;;5.57;1.77;;;21.10;21.90;;;;;;5032642;28;47018;-60
2022/07/10 11:09:29;;;;;;;5.27;1.83;;;21.40;21.70;;;;;;5034511;28;46542;-61
2022/07/10 11:12:08;;;;;;;3.53;1.57;;;21.60;20.90;;;;;;5034129;28;46410;-61
2022/07/10 11:14:45;;;;;;;8.17;2.10;;;21.60;20.00;;;;;;5029854;28;46304;-61
2022/07/10 11:17:11;;;;;;;5.50;2.00;;;21.80;20.30;;;;;;5032097;28;47061;-63
2022/07/10 11:19:37;;;;;;;5.73;1.87;;;22.50;20.40;;;;;;5033658;28;46409;-61
2022/07/10 11:22:40;;;;;;;4.30;1.93;;;22.70;19.60;;;;;;5033612;28;46541;-60
2022/07/10 11:25:14;;;;;;;5.13;1.70;;;22.80;19.60;;;;;;5030871;28;46592;-60
2022/07/10 11:28:08;;;;;;;6.20;1.53;;;22.80;18.90;;;;;;5027978;28;46594;-59
2022/07/10 11:30:48;;;;;;;6.17;1.97;;;22.50;19.10;;;;;;5027877;28;46445;-59
2022/07/10 11:33:14;;;;;;;5.70;1.67;;;22.00;19.70;;;;;;5032168;28;46417;-60
2022/07/10 11:35:40;;;;;;;6.57;1.63;;;21.90;20.50;;;;;;5030678;28;46336;-61
2022/07/10 11:38:06;;;;;;;3.90;1.90;;;22.10;20.50;;;;;;5029521;28;47259;-60
2022/07/10 11:40:36;;;;;;;4.00;1.67;;;22.10;20.20;;;;;;5028273;28;46432;-60
2022/07/10 11:43:05;;;;;;;6.57;1.70;;;22.50;19.60;;;;;;5029305;28;46538;-60
2022/07/10 11:45:33;;;;;;;4.30;1.80;;;23.00;18.90;;;;;;5033174;28;46371;-62
2022/07/10 11:48:00;;;;;;;5.67;1.60;;;22.90;18.10;;;;;;5030429;28;47197;-60
2022/07/10 11:50:27;;;;;;;4.90;1.73;;;22.20;17.20;;;;;;5029805;28;45996;-60
2022/07/10 11:52:54;;;;;;;5.00;1.57;;;21.80;18.80;;;;;;5031681;28;46523;-60
2022/07/10 11:55:22;;;;;;;9.40;1.83;;;21.90;18.90;;;;;;5028346;28;46680;-60
2022/07/10 11:57:48;;;;;;;4.60;1.50;;;21.60;18.80;;;;;;5027977;28;46441;-60
2022/07/10 12:00:24;;;;;;;3.53;1.60;;;21.70;19.20;;;;;;5029523;28;46414;-59
2022/07/10 12:02:54;;;;;;;4.37;1.50;;;21.90;19.10;;;;;;5026997;28;46556;-60
2022/07/10 12:05:33;;;;;;;5.30;1.67;;;22.20;19.20;;;;;;5033942;28;46152;-59
2022/07/10 12:07:59;;;;;;;5.80;1.97;;;22.10;18.50;;;;;;5026047;28;46375;-61
2022/07/10 12:10:32;;;;;;;5.23;1.60;;;21.50;18.00;;;;;;5024699;28;46671;-59
2022/07/10 12:13:11;;;;;;;7.13;1.67;;;21.50;18.80;;;;;;5031868;28;46440;-60
2022/07/10 12:15:42;;;;;;;4.30;1.67;;;21.80;19.10;;;;;;5028363;28;46620;-61
2022/07/10 12:18:15;;;;;;;4.27;1.70;;;21.90;18.10;;;;;;5029660;28;48100;-64
2022/07/10 12:20:45;;;;;;;3.10;1.83;;;22.00;18.10;;;;;;5025025;28;46383;-61
2022/07/10 12:23:12;;;;;;;5.97;2.10;;;22.60;18.10;;;;;;5029657;28;46592;-61
2022/07/10 12:25:38;;;;;;;4.00;1.50;;;22.90;18.20;;;;;;5030441;28;46603;-60
2022/07/10 12:28:04;;;;;;;3.53;1.60;;;22.80;16.30;;;;;;5029027;28;48896;-61
2022/07/10 12:30:38;;;;;;;2.57;1.23;;;22.80;16.20;;;;;;5028620;28;46465;-60
2022/07/10 12:33:08;;;;;;;5.27;1.40;;;22.70;16.60;;;;;;5028801;28;46433;-61
2022/07/10 12:35:53;;;;;;;6.23;1.97;;;22.10;16.90;;;;;;5033558;28;46415;-60
2022/07/10 12:38:27;;;;;;;3.07;1.43;;;21.70;17.80;;;;;;5029725;28;46657;-60
2022/07/10 12:41:13;;;;;;;3.60;1.67;;;21.90;18.00;;;;;;5028160;28;46623;-60
2022/07/10 12:43:40;;;;;;;3.50;1.30;;;22.20;18.00;;;;;;5028653;28;46439;-61
2022/07/10 12:46:08;;;;;;;4.57;1.60;;;22.40;17.30;;;;;;5029130;28;46566;-61
2022/07/10 12:48:34;;;;;;;3.10;1.47;;;22.30;16.90;;;;;;5028656;28;46313;-63
2022/07/10 12:51:26;;;;;;;11.43;1.77;;;22.60;17.20;;;;;;5027365;28;46442;-60
2022/07/10 12:53:52;;;;;;;7.90;1.53;;;22.70;17.00;;;;;;5027985;28;46463;-60
2022/07/10 12:56:31;;;;;;;4.27;1.60;;;22.50;16.90;;;;;;5031801;28;46437;-61
2022/07/10 12:58:58;;;;;;;6.93;1.90;;;22.70;16.90;;;;;;5030479;28;47291;-61